נתונים של GFS לימים הקרובים בירושלים
|שלג
אישלג|?

אין תמיכה כמובן בגבוהות. מה שכן, יש 9 שעות שיש תמיכה ב-700

ה-850 לא ממש קיצוני בזמן זה (בין 2.5- ל2.8). רום קיפאון סביב ה-1000.
אולי כן יערם משהו, בשכונות הגבוהות אולי אפילו פחות גבולי..
מה שכן, חלון הזדמנויות לא ארוך ולא בטוח שהמשקעים יהיו רציניים ורציפים כדי לאפשר היערמות בטמפרטורה גבוהה מ-0.
 
כמובן. רשמתי גם שאין תמיכה בגבוהות ולכן ההנמכה מרום הקיפאון

תהיה נמוכה.
עם זאת, גם הנמכה מסוימת שיכולה להיות בלי תמיכה ב-500, צריכה תמיכה ב-700 לפחות. וגם את זה יש רק בשעות מועטות.
 
אני אוציא. תזכיר לי את עניין הגובה 500... מה הערך המיוחל?

עובי שכבה כפי שזכור לי צריך להיות מתחת ל-540, נכון?

 

יו45

New member
ירדו בירושלים הרבה יותר מ-5 מ"מ בשעות הרלוונטיות

מוכן להמר על זה ...
&nbsp
תראי מפות משקעים ברזולוציה גבוהה ... עושה רושם שנראה כמויות יפות בהרי המרכז עד שעות הלילה המאוחרות .
 
וואי, איך אתם תמיד זוכרים תאריכים?? הנה מספרים מעודכנים

נראה אפשרי לעניות דעתי.

 
לא זכרתי בדיוק, טעיתי ביום , הלכתי לאתר הסונדות לבדוק :)

על פי זה סיכוי לשלג בירושלים בשישי בלילה אם
יהיו משקעים?
ומה ההפרש שצריך להיות ביון 850 ל600 במידה וה500 מחוץ למשחק?
 

tcu6

New member
TAF חורפי במיוחד בשעות הבוקר

ראש פינה
תקף עד יום שישי 2 בצהרים
TAF LLIB 311149Z 3112/0112 27015KT 9999 BKN025
TEMPO 3114/3120 27020G30KT 5000 TSRA BR SCT015 FEW020CB BKN025
TEMPO 3120/0104 27020G30KT 2000 TSRA FEW015CB BKN018
FM010400 24010KT 7000 -RA BKN020
TEMPO 0104/0112 27020G30KT 3000 TSRA BR SCT010 FEW015CB BKN018 TX09/0112Z TN08/0104Z

הלילה צפוי מדי פעם גשם וס"ר. משבי רוח מערבית עד 30 קשר.
מ6 בבוקר צפוי גשם קל.
מדי פעם במהלך הבוקר ירד גשם מלווה בס"ר.
&nbsp
&nbsp
מפרץ חיפה
תקף עד יום שישי ב2 בצהרים.
TAF LLHA 311135Z 3112/0112 28018KT 9999 BKN035
TEMPO 3112/3118 28022G35KT 4000 TSRA FEW015 FEW020CB BKN025
TEMPO 3118/0106 28022G35KT 2000 TSRA SCT015 SCT020CB BKN030
TEMPO 0106/0112 28022G35KT 4000 TSRAGS FEW015 SCT020CB BKN030 TX12/0112Z TN11/0104Z

הלילה מדי פעם גשם מלווה בס"ר, משבי רוח מערבית עד 35 קשר (כ65 קמ"ש)
מ"ח בענני CB.
זמנית במהלך הבוקר ועד לסיום התחזית ב2 בצהרים- מדי פעם גשם/ברד מלווה בס"ר
משבי רוח עד 35 קשר. ראות תרד מדי פעם ל4 קמ. עד 4/8 ענני CB.
&nbsp
שדה דב
תקף עד יום שישי ב8 בערב
TAF LLSD 311704Z 3118/0118 26020KT 9999 BKN030
TEMPO 3118/0106 28025G40KT 2000 TSRA SCT015 SCT020CB BKN030
FM010600 28027KT 7000 BKN030
TEMPO 0106/0112 28030G50KT 4000 TSRAGS FEW015 SCT020CB BKN030
FM011400 30025KT 9999 SCT030
TEMPO 0114/0118 30030G40KT 6000 SHRA SCT025TCU BKN030 TX12/0110Z TN11/0104Z
&nbsp
הלילה מדי פעם גשם מלווה בס"ר, משבי רוח סער עד 40 קשר (כ74 קמ"ש)
לאחר 8 בבוקר הרוח המערבית תתחזק ל27 קשר.
זמנית במהלך הבוקר ועד 2 בצהרים מדי פעם ירד גשם/ברד מלווה בס"ר . מדי פעם תתחזק הרוח ל30 קשר ומשבי סער עד 50קשר (92 קמ"ש)
לאחר השעה 4 אחה"צ, הרוח תחוג לצפ-מערבית 25 קשר.
זמנית בשעות אחה"צ והערב, עד 8 בערב זמן סיום התחזית, ירדו מדי פעם ממטרים, תנשב רוח צפ-מע 30 קשר ומשבים עד 40 קשר (כ74 קמ"ש).
&nbsp
בן גוריון
תקף עד יום שישי ב 8 בערב
TAF LLBG 311703Z 3118/0118 25008KT 9999 BKN035
TEMPO 3118/0106 28022G35KT 2000 TSRA SCT015 SCT020CB BKN030
FM010600 27020KT 9999 BKN035
TEMPO 0106/0113 28022G35KT 4000 TSRAGS FEW015 SCT020CB BKN030
FM011300 30015KT 9999 BKN035
TEMPO 0113/0118 30018G28KT 6000 SHRA SCT015 SCT020TCU BKN030 TX11/0110Z TN10/0104Z

הלילה מדי פעם גשם וס"ר, רוח עם משבים עד 35 קשר.
זמנית במהלך הבוקר ועד 3 אחה"צ ירד מדי פעם גשם/ברד מלווה בס"ר.משבי רוח עד 35 קשר.
לאחר השעה 3 אחה"צ הרוח תחוג לצפ-מערבית מתונה.
זמנית עד 8 בערב, זמן סיום התחזית, ירדו מדי פעם ממטרים. משבי רוח עד 28 קשר (כ52 קמ"ש).
&nbsp
אילת
תקף עד 8 8 בערב, יום שישי.
TAF LLET 311702Z 3118/0118 30008KT CAVOK
BECMG 0100/0102 9999 SCT050
PROB40 0104/0111 9000 RA FEW035TCU BKN045 TX16/0112Z TN12/0104Z

סיכוי לגשם מדי פעם בסבירות של 40% במהלך שעות הבוקר.
טמפ מקס 16 מעלות.
&nbsp
לפי המפה האווירית של השמ"ט ל8 בבוקר צפוי שלג ברמת הגלון והחרמון וכן בהרי אדום.
המפה של 2 בצהרים מציינת שלג בגליל העליון צפון רמת הגולן והחרמון, הרי יהודה באזור גוש עציון-חברון
&nbsp
 
למעלה